createdAt,value
2023-04-16T00:00:46.350Z,11.40
2023-04-16T00:03:13.211Z,11.40
2023-04-16T00:05:39.978Z,11.40
2023-04-16T00:08:06.586Z,11.30
2023-04-16T00:10:35.397Z,11.30
2023-04-16T00:13:02.077Z,11.30
2023-04-16T00:15:28.776Z,11.30
2023-04-16T00:17:55.558Z,11.30
2023-04-16T00:20:22.241Z,11.30
2023-04-16T00:22:48.901Z,11.30
2023-04-16T00:25:15.508Z,11.30
2023-04-16T00:27:42.116Z,11.30
2023-04-16T00:30:09.524Z,11.30
2023-04-16T00:32:36.188Z,11.20
2023-04-16T00:35:03.384Z,11.20
2023-04-16T00:37:30.571Z,11.20
2023-04-16T00:39:57.190Z,11.30
2023-04-16T00:42:23.815Z,11.30
2023-04-16T00:44:50.459Z,11.20
2023-04-16T00:47:17.453Z,11.30
2023-04-16T00:49:44.329Z,11.20
2023-04-16T00:52:11.795Z,11.20
2023-04-16T00:54:39.431Z,11.20
2023-04-16T00:57:06.343Z,11.20
2023-04-16T00:59:33.111Z,11.30
2023-04-16T01:01:59.755Z,11.30
2023-04-16T01:04:26.626Z,11.30
2023-04-16T01:06:53.647Z,11.20
2023-04-16T01:09:20.284Z,11.20
2023-04-16T01:11:46.909Z,11.20
2023-04-16T01:14:13.511Z,11.20
2023-04-16T01:16:40.104Z,11.30
2023-04-16T01:19:06.755Z,11.20
2023-04-16T01:21:33.361Z,11.20
2023-04-16T01:24:04.535Z,11.20
2023-04-16T01:26:31.531Z,11.20
2023-04-16T01:28:59.661Z,11.20
2023-04-16T01:31:26.341Z,11.20
2023-04-16T01:33:53.029Z,11.20
2023-04-16T01:36:19.679Z,11.20
2023-04-16T01:38:46.476Z,11.10
2023-04-16T01:41:13.122Z,11.10
2023-04-16T01:43:40.484Z,11.10
2023-04-16T01:46:23.519Z,11.10
2023-04-16T01:48:50.192Z,11.10
2023-04-16T01:51:16.827Z,11.10
2023-04-16T01:53:43.440Z,11.10
2023-04-16T01:56:10.124Z,11.10
2023-04-16T01:58:36.842Z,11.10
2023-04-16T02:01:04.430Z,11.10
2023-04-16T02:03:31.825Z,11.00
2023-04-16T02:05:58.516Z,11.10
2023-04-16T02:08:25.147Z,11.10
2023-04-16T02:10:51.848Z,11.10
2023-04-16T02:13:18.661Z,11.10
2023-04-16T02:15:50.050Z,11.10
2023-04-16T02:18:16.964Z,11.10
2023-04-16T02:20:45.654Z,11.00
2023-04-16T02:23:14.922Z,11.00
2023-04-16T02:25:42.889Z,11.00
2023-04-16T02:28:14.811Z,11.10
2023-04-16T02:30:42.056Z,11.00
2023-04-16T02:33:10.983Z,11.10
2023-04-16T02:35:39.475Z,11.10
2023-04-16T02:38:06.883Z,11.00
2023-04-16T02:40:33.764Z,11.00
2023-04-16T02:43:00.512Z,11.10
2023-04-16T02:45:27.201Z,11.00
2023-04-16T02:47:53.852Z,11.00
2023-04-16T02:50:20.674Z,11.10
2023-04-16T02:52:47.376Z,11.00
2023-04-16T02:55:14.001Z,11.00
2023-04-16T02:57:42.276Z,11.00
2023-04-16T03:00:09.340Z,11.00
2023-04-16T03:02:36.087Z,11.00
2023-04-16T03:05:03.581Z,11.00
2023-04-16T03:07:30.235Z,11.00
2023-04-16T03:09:57.224Z,11.00
2023-04-16T03:12:23.873Z,11.00
2023-04-16T03:14:52.465Z,11.00
2023-04-16T03:17:19.161Z,11.00
2023-04-16T03:19:46.127Z,11.00
2023-04-16T03:22:12.818Z,11.00
2023-04-16T03:24:39.442Z,11.00
2023-04-16T03:27:06.117Z,11.00
2023-04-16T03:29:32.725Z,11.00
2023-04-16T03:31:59.441Z,11.00
2023-04-16T03:34:26.085Z,11.00
2023-04-16T03:36:52.715Z,11.00
2023-04-16T03:39:19.457Z,11.00
2023-04-16T03:41:46.198Z,11.00
2023-04-16T03:44:12.794Z,11.00
2023-04-16T03:46:39.411Z,11.00
2023-04-16T03:49:06.215Z,11.00
2023-04-16T03:51:32.798Z,11.00
2023-04-16T03:53:59.400Z,11.10
2023-04-16T03:56:26.209Z,11.10
2023-04-16T03:58:52.821Z,11.00
2023-04-16T04:01:19.500Z,11.10
2023-04-16T04:03:46.198Z,11.00
2023-04-16T04:06:13.002Z,11.10
2023-04-16T04:08:39.696Z,11.00
2023-04-16T04:11:06.357Z,11.00
2023-04-16T04:13:33.142Z,11.10
2023-04-16T04:15:59.941Z,11.10
2023-04-16T04:18:26.632Z,11.10
2023-04-16T04:20:53.271Z,11.10
2023-04-16T04:23:19.869Z,11.00
2023-04-16T04:25:46.649Z,11.10
2023-04-16T04:28:13.339Z,11.00
2023-04-16T04:30:40.014Z,11.00
2023-04-16T04:33:06.828Z,11.00
2023-04-16T04:35:33.946Z,11.00
2023-04-16T04:38:03.432Z,11.00
2023-04-16T04:40:30.088Z,11.00
2023-04-16T04:42:56.829Z,11.00
2023-04-16T04:45:26.712Z,11.00
2023-04-16T04:47:53.580Z,11.00
2023-04-16T04:50:20.986Z,11.00
2023-04-16T04:52:47.795Z,11.00
2023-04-16T04:55:15.877Z,11.00
2023-04-16T04:57:42.650Z,11.00
2023-04-16T05:00:09.773Z,11.00
2023-04-16T05:02:36.554Z,11.00
2023-04-16T05:05:03.957Z,11.00
2023-04-16T05:07:30.884Z,11.00
2023-04-16T05:09:57.529Z,11.00
2023-04-16T05:12:24.186Z,11.00
2023-04-16T05:14:50.878Z,11.00
2023-04-16T05:17:17.540Z,11.00
2023-04-16T05:19:44.153Z,11.00
2023-04-16T05:22:10.765Z,11.10
2023-04-16T05:24:37.357Z,11.10
2023-04-16T05:27:04.098Z,11.10
2023-04-16T05:29:30.766Z,11.10
2023-04-16T05:31:57.427Z,11.20
2023-04-16T05:34:24.030Z,11.20
2023-04-16T05:36:50.683Z,11.30
2023-04-16T05:39:18.032Z,11.30
2023-04-16T05:41:44.644Z,11.30
2023-04-16T05:44:11.376Z,11.40
2023-04-16T05:46:38.129Z,11.40
2023-04-16T05:49:04.773Z,11.40
2023-04-16T05:51:32.351Z,11.40
2023-04-16T05:53:59.005Z,11.40
2023-04-16T05:56:26.054Z,11.40
2023-04-16T05:58:52.682Z,11.50
2023-04-16T06:01:19.292Z,11.50
2023-04-16T06:03:46.138Z,11.50
2023-04-16T06:06:13.262Z,11.50
2023-04-16T06:08:39.927Z,11.50
2023-04-16T06:11:06.566Z,11.50
2023-04-16T06:13:33.206Z,11.50
2023-04-16T06:15:59.874Z,11.50
2023-04-16T06:18:26.598Z,11.50
2023-04-16T06:20:53.248Z,11.50
2023-04-16T06:23:20.251Z,11.50
2023-04-16T06:25:46.853Z,11.50
2023-04-16T06:28:13.451Z,11.50
2023-04-16T06:30:40.128Z,11.50
2023-04-16T06:33:06.926Z,11.50
2023-04-16T06:35:33.559Z,11.50
2023-04-16T06:38:00.259Z,11.50
2023-04-16T06:40:26.962Z,11.50
2023-04-16T06:42:54.110Z,11.50
2023-04-16T06:45:20.826Z,11.50
2023-04-16T06:47:48.113Z,11.60
2023-04-16T06:50:14.961Z,11.70
2023-04-16T06:52:41.637Z,11.70
2023-04-16T06:55:10.052Z,11.70
2023-04-16T06:57:37.651Z,11.80
2023-04-16T07:00:08.060Z,11.80
2023-04-16T07:02:35.222Z,11.80
2023-04-16T07:05:02.313Z,11.80
2023-04-16T07:07:28.955Z,11.90
2023-04-16T07:09:55.577Z,11.90
2023-04-16T07:12:22.918Z,12.00
2023-04-16T07:14:49.854Z,12.00
2023-04-16T07:17:16.519Z,12.00
2023-04-16T07:19:43.160Z,12.00
2023-04-16T07:22:09.794Z,12.10
2023-04-16T07:24:36.542Z,12.10
2023-04-16T07:27:03.186Z,12.20
2023-04-16T07:29:29.841Z,12.20
2023-04-16T07:31:57.500Z,12.30
2023-04-16T07:34:24.211Z,12.30
2023-04-16T07:36:50.834Z,12.30
2023-04-16T07:39:17.424Z,12.30
2023-04-16T07:41:44.161Z,12.30
2023-04-16T07:44:10.826Z,12.40
2023-04-16T07:46:46.224Z,12.50
2023-04-16T07:49:13.825Z,12.50
2023-04-16T07:51:40.524Z,12.60
2023-04-16T07:54:07.146Z,12.70
2023-04-16T07:56:33.841Z,12.70
2023-04-16T07:59:07.991Z,12.70
2023-04-16T08:01:41.444Z,12.80
2023-04-16T08:04:08.284Z,12.90
2023-04-16T08:06:35.060Z,12.90
2023-04-16T08:09:01.698Z,13.00
2023-04-16T08:11:28.584Z,13.10
2023-04-16T08:13:55.378Z,13.10
2023-04-16T08:16:22.132Z,13.10
2023-04-16T08:18:48.826Z,13.10
2023-04-16T08:21:15.436Z,13.00
2023-04-16T08:23:42.078Z,13.00
2023-04-16T08:26:08.735Z,13.00
2023-04-16T08:28:35.318Z,13.00
2023-04-16T08:31:02.080Z,12.90
2023-04-16T08:33:28.897Z,13.00
2023-04-16T08:35:55.786Z,13.00
2023-04-16T08:38:22.438Z,13.00
2023-04-16T08:40:49.240Z,13.10
2023-04-16T08:43:18.143Z,13.20
2023-04-16T08:45:47.610Z,13.30
2023-04-16T08:48:14.957Z,13.40
2023-04-16T08:50:42.998Z,13.40
2023-04-16T08:53:15.946Z,13.40
2023-04-16T08:55:47.760Z,13.30
2023-04-16T08:58:23.420Z,13.20
2023-04-16T09:00:50.976Z,13.20
2023-04-16T09:03:20.050Z,13.20
2023-04-16T09:05:47.149Z,13.20
2023-04-16T09:08:14.159Z,13.20
2023-04-16T09:10:40.869Z,13.30
2023-04-16T09:13:09.328Z,13.20
2023-04-16T09:15:36.547Z,13.20
2023-04-16T09:18:03.405Z,13.30
2023-04-16T09:20:30.034Z,13.20
2023-04-16T09:22:57.144Z,13.30
2023-04-16T09:25:25.538Z,13.30
2023-04-16T09:27:52.368Z,13.30
2023-04-16T09:30:22.730Z,13.30
2023-04-16T09:32:50.732Z,13.30
2023-04-16T09:35:19.712Z,13.30
2023-04-16T09:37:57.023Z,13.30
2023-04-16T09:40:30.321Z,13.30
2023-04-16T09:42:57.531Z,13.30
2023-04-16T09:45:24.399Z,13.30
2023-04-16T09:47:51.083Z,13.20
2023-04-16T09:50:19.394Z,13.30
2023-04-16T09:52:49.332Z,13.30
2023-04-16T09:55:15.978Z,13.20
2023-04-16T09:57:42.602Z,13.20
2023-04-16T10:00:10.413Z,13.20
2023-04-16T10:02:41.765Z,13.20
2023-04-16T10:05:09.183Z,13.20
2023-04-16T10:07:37.119Z,13.20
2023-04-16T10:10:04.463Z,13.20
2023-04-16T10:12:32.767Z,13.20
2023-04-16T10:14:59.829Z,13.10
2023-04-16T10:17:29.908Z,13.10
2023-04-16T10:19:58.242Z,13.10
2023-04-16T10:22:26.083Z,13.10
2023-04-16T10:24:54.054Z,13.10
2023-04-16T10:27:21.141Z,13.10
2023-04-16T10:29:49.239Z,13.20
2023-04-16T10:32:18.183Z,13.30
2023-04-16T10:34:45.548Z,13.30
2023-04-16T10:37:12.608Z,13.30
2023-04-16T10:39:39.355Z,13.40
2023-04-16T10:42:11.736Z,13.40
2023-04-16T10:44:40.292Z,13.50
2023-04-16T10:47:12.780Z,13.50
2023-04-16T10:49:40.180Z,13.60
2023-04-16T10:52:13.785Z,13.60
2023-04-16T10:54:41.162Z,13.70
2023-04-16T10:57:09.649Z,13.60
2023-04-16T10:59:37.789Z,13.70
2023-04-16T11:02:11.719Z,13.70
2023-04-16T11:04:40.385Z,13.70
2023-04-16T11:07:11.504Z,13.60
2023-04-16T11:10:03.066Z,13.60
2023-04-16T11:12:29.866Z,13.50
2023-04-16T11:15:00.896Z,13.50
2023-04-16T11:17:45.615Z,13.40
2023-04-16T11:20:21.426Z,13.50
2023-04-16T11:22:52.092Z,13.50
2023-04-16T11:25:30.789Z,13.50
2023-04-16T11:27:58.963Z,13.50
2023-04-16T11:30:39.226Z,13.50
2023-04-16T11:33:11.187Z,13.60
2023-04-16T11:35:41.392Z,13.70
2023-04-16T11:38:08.175Z,13.70
2023-04-16T11:40:36.255Z,13.80
2023-04-16T11:43:21.103Z,13.80
2023-04-16T11:46:26.362Z,13.90
2023-04-16T11:48:55.848Z,14.00
2023-04-16T11:51:23.365Z,14.00
2023-04-16T11:53:52.985Z,14.00
2023-04-16T11:56:30.904Z,14.00
2023-04-16T11:59:12.235Z,14.10
2023-04-16T12:01:40.754Z,14.10
2023-04-16T12:04:08.403Z,14.10
2023-04-16T12:06:35.602Z,14.10
2023-04-16T12:09:23.152Z,14.10
2023-04-16T12:11:49.806Z,14.10
2023-04-16T12:14:16.483Z,14.10
2023-04-16T12:16:43.160Z,14.20
2023-04-16T12:19:12.852Z,14.20
2023-04-16T12:21:47.506Z,14.20
2023-04-16T12:24:23.962Z,14.30
2023-04-16T12:26:57.362Z,14.50
2023-04-16T12:29:27.471Z,14.60
2023-04-16T12:31:54.398Z,14.60
2023-04-16T12:34:22.247Z,14.60
2023-04-16T12:37:10.983Z,14.60
2023-04-16T12:39:37.589Z,14.60
2023-04-16T12:42:06.286Z,14.50
2023-04-16T12:44:32.880Z,14.50
2023-04-16T12:46:59.472Z,14.50
2023-04-16T12:49:26.209Z,14.50
2023-04-16T12:51:52.870Z,14.50
2023-04-16T12:54:19.499Z,14.40
2023-04-16T12:56:46.448Z,14.40
2023-04-16T12:59:13.048Z,14.40
2023-04-16T13:01:39.990Z,14.40
2023-04-16T13:04:07.592Z,14.40
2023-04-16T13:06:34.441Z,14.40
2023-04-16T13:09:01.031Z,14.40
2023-04-16T13:11:27.770Z,14.50
2023-04-16T13:13:54.388Z,14.50
2023-04-16T13:16:21.310Z,14.40
2023-04-16T13:18:48.051Z,14.40
2023-04-16T13:21:14.706Z,14.40
2023-04-16T13:23:41.346Z,14.30
2023-04-16T13:26:07.944Z,14.30
2023-04-16T13:28:34.544Z,14.20
2023-04-16T13:31:03.393Z,14.10
2023-04-16T13:33:31.837Z,14.00
2023-04-16T13:35:58.483Z,14.00
2023-04-16T13:38:25.239Z,14.00
2023-04-16T13:40:51.875Z,14.00
2023-04-16T13:43:18.998Z,13.90
2023-04-16T13:45:46.021Z,13.90
2023-04-16T13:48:12.705Z,13.90
2023-04-16T13:50:39.424Z,13.90
2023-04-16T13:53:06.307Z,13.90
2023-04-16T13:55:33.032Z,13.80
2023-04-16T13:58:00.043Z,13.80
2023-04-16T14:00:27.345Z,13.70
2023-04-16T14:02:54.115Z,13.70
2023-04-16T14:05:20.819Z,13.60
2023-04-16T14:07:47.432Z,13.60
2023-04-16T14:10:14.098Z,13.50
2023-04-16T14:12:40.733Z,13.60
2023-04-16T14:15:09.590Z,13.60
2023-04-16T14:17:37.269Z,13.70
2023-04-16T14:20:05.794Z,13.70
2023-04-16T14:22:32.796Z,13.80
2023-04-16T14:24:59.809Z,13.80
2023-04-16T14:27:27.406Z,13.80
2023-04-16T14:29:54.203Z,13.90
2023-04-16T14:32:21.214Z,13.90
2023-04-16T14:34:47.914Z,13.90
2023-04-16T14:37:16.670Z,13.90
2023-04-16T14:39:43.521Z,13.90
2023-04-16T14:42:11.025Z,13.90
2023-04-16T14:44:37.851Z,13.90
2023-04-16T14:47:04.552Z,13.80
2023-04-16T14:49:31.821Z,13.80
2023-04-16T14:51:58.473Z,13.80
2023-04-16T14:54:25.123Z,13.80
2023-04-16T14:56:51.692Z,13.80
2023-04-16T14:59:18.309Z,13.80
2023-04-16T15:01:46.073Z,13.80
2023-04-16T15:04:13.072Z,13.70
2023-04-16T15:06:39.854Z,13.60
2023-04-16T15:09:07.405Z,13.60
2023-04-16T15:11:34.155Z,13.60
2023-04-16T15:14:01.257Z,13.60
2023-04-16T15:16:27.866Z,13.50
2023-04-16T15:18:54.505Z,13.50
2023-04-16T15:21:21.087Z,13.50
2023-04-16T15:23:47.681Z,13.40
2023-04-16T15:26:14.382Z,13.40
2023-04-16T15:28:41.282Z,13.30
2023-04-16T15:31:08.150Z,13.30
2023-04-16T15:33:34.818Z,13.30
2023-04-16T15:36:01.408Z,13.30
2023-04-16T15:38:30.660Z,13.30
2023-04-16T15:41:00.676Z,13.30
2023-04-16T15:43:28.302Z,13.40
2023-04-16T15:45:55.489Z,13.40
2023-04-16T15:48:22.179Z,13.40
2023-04-16T15:50:49.229Z,13.40
2023-04-16T15:53:16.425Z,13.40
2023-04-16T15:55:43.772Z,13.40
2023-04-16T15:58:10.747Z,13.40
2023-04-16T16:00:37.340Z,13.40
2023-04-16T16:03:04.305Z,13.40
2023-04-16T16:05:31.345Z,13.40
2023-04-16T16:07:58.334Z,13.40
2023-04-16T16:10:25.157Z,13.40
2023-04-16T16:12:51.894Z,13.40
2023-04-16T16:15:18.514Z,13.40
2023-04-16T16:17:45.232Z,13.40
2023-04-16T16:20:12.783Z,13.40
2023-04-16T16:22:40.629Z,13.50
2023-04-16T16:25:07.829Z,13.50
2023-04-16T16:27:36.057Z,13.50
2023-04-16T16:30:04.822Z,13.40
2023-04-16T16:32:31.459Z,13.40
2023-04-16T16:34:58.073Z,13.50
2023-04-16T16:37:24.700Z,13.50
2023-04-16T16:39:51.909Z,13.50
2023-04-16T16:42:18.820Z,13.50
2023-04-16T16:44:47.622Z,13.50
2023-04-16T16:47:14.323Z,13.50
2023-04-16T16:49:40.963Z,13.50
2023-04-16T16:52:07.532Z,13.60
2023-04-16T16:54:34.162Z,13.60
2023-04-16T16:57:02.333Z,13.60
2023-04-16T16:59:29.687Z,13.60
2023-04-16T17:01:56.385Z,13.60
2023-04-16T17:04:23.138Z,13.50
2023-04-16T17:06:49.882Z,13.50
2023-04-16T17:09:16.799Z,13.50
2023-04-16T17:11:43.645Z,13.40
2023-04-16T17:14:10.260Z,13.40
2023-04-16T17:16:36.927Z,13.30
2023-04-16T17:19:03.613Z,13.30
2023-04-16T17:21:32.656Z,13.30
2023-04-16T17:23:59.234Z,13.30
2023-04-16T17:26:25.806Z,13.30
2023-04-16T17:28:53.195Z,13.20
2023-04-16T17:31:20.270Z,13.20
2023-04-16T17:33:46.902Z,13.10
2023-04-16T17:36:13.529Z,13.00
2023-04-16T17:38:40.599Z,13.00
2023-04-16T17:41:07.585Z,13.00
2023-04-16T17:43:34.206Z,12.90
2023-04-16T17:46:01.183Z,12.90
2023-04-16T17:48:27.820Z,12.80
2023-04-16T17:50:54.522Z,12.80
2023-04-16T17:53:21.956Z,12.80
2023-04-16T17:55:54.167Z,12.80
2023-04-16T17:58:22.815Z,12.80
2023-04-16T18:00:49.398Z,12.80
2023-04-16T18:03:16.454Z,12.80
2023-04-16T18:05:43.270Z,12.80
2023-04-16T18:08:09.934Z,12.80
2023-04-16T18:10:38.120Z,12.70
2023-04-16T18:13:04.677Z,12.70
2023-04-16T18:15:31.801Z,12.70
2023-04-16T18:17:58.500Z,12.70
2023-04-16T18:20:25.236Z,12.60
2023-04-16T18:22:51.837Z,12.60
2023-04-16T18:25:20.731Z,12.60
2023-04-16T18:27:52.320Z,12.60
2023-04-16T18:30:23.487Z,12.50
2023-04-16T18:33:11.428Z,12.50
2023-04-16T18:35:40.561Z,12.50
2023-04-16T18:38:07.321Z,12.40
2023-04-16T18:40:37.784Z,12.50
2023-04-16T18:43:04.519Z,12.50
2023-04-16T18:48:02.785Z,12.40
2023-04-16T18:50:29.731Z,12.40
2023-04-16T18:52:56.351Z,12.30
2023-04-16T18:55:22.984Z,12.30
2023-04-16T18:57:49.713Z,12.30
2023-04-16T19:00:16.575Z,12.30
2023-04-16T19:02:43.285Z,12.30
2023-04-16T19:05:10.760Z,12.30
2023-04-16T19:07:37.809Z,12.30
2023-04-16T19:10:05.430Z,12.30
2023-04-16T19:12:32.248Z,12.20
2023-04-16T19:14:59.073Z,12.20
2023-04-16T19:17:25.916Z,12.20
2023-04-16T19:19:52.551Z,12.20
2023-04-16T19:22:19.126Z,12.20
2023-04-16T19:24:45.743Z,12.10
2023-04-16T19:27:12.370Z,12.10
2023-04-16T19:29:40.436Z,12.10
2023-04-16T19:32:07.123Z,12.10
2023-04-16T19:34:33.863Z,12.10
2023-04-16T19:37:00.477Z,12.00
2023-04-16T19:39:27.998Z,12.00
2023-04-16T19:41:54.622Z,12.00
2023-04-16T19:44:23.102Z,12.00
2023-04-16T19:46:49.671Z,12.00
2023-04-16T19:49:16.293Z,12.00
2023-04-16T19:51:42.909Z,12.00
2023-04-16T19:54:09.849Z,12.00
2023-04-16T19:56:36.787Z,12.00
2023-04-16T19:59:03.431Z,12.00
2023-04-16T20:01:32.955Z,12.00
2023-04-16T20:03:59.630Z,12.00
2023-04-16T20:06:26.823Z,12.00
2023-04-16T20:08:53.481Z,11.90
2023-04-16T20:11:20.388Z,11.90
2023-04-16T20:13:47.790Z,11.90
2023-04-16T20:16:14.686Z,11.90
2023-04-16T20:18:42.459Z,11.90
2023-04-16T20:21:09.937Z,11.90
2023-04-16T20:23:36.642Z,11.90
2023-04-16T20:26:04.365Z,11.90
2023-04-16T20:28:31.015Z,11.90
2023-04-16T20:30:57.673Z,11.80
2023-04-16T20:33:24.437Z,11.90
2023-04-16T20:35:52.162Z,11.90
2023-04-16T20:38:23.782Z,11.80
2023-04-16T20:41:06.069Z,11.90
2023-04-16T20:43:38.170Z,11.90
2023-04-16T20:46:08.671Z,11.80
2023-04-16T20:48:35.457Z,11.80
2023-04-16T20:51:03.707Z,11.80
2023-04-16T20:53:32.344Z,11.80
2023-04-16T20:56:02.380Z,11.80
2023-04-16T20:58:29.635Z,11.80
2023-04-16T21:00:57.424Z,11.80
2023-04-16T21:03:24.946Z,11.80
2023-04-16T21:05:53.530Z,11.80
2023-04-16T21:08:24.132Z,11.80
2023-04-16T21:10:51.239Z,11.80
2023-04-16T21:13:18.602Z,11.80
2023-04-16T21:15:45.951Z,11.80
2023-04-16T21:18:12.825Z,11.80
2023-04-16T21:20:39.886Z,11.80
2023-04-16T21:23:06.663Z,11.80
2023-04-16T21:25:33.532Z,11.80
2023-04-16T21:28:00.270Z,11.80
2023-04-16T21:30:27.055Z,11.80
2023-04-16T21:32:53.789Z,11.80
2023-04-16T21:35:20.503Z,11.80
2023-04-16T21:37:47.216Z,11.80
2023-04-16T21:40:14.044Z,11.80
2023-04-16T21:42:42.283Z,11.80
2023-04-16T21:45:12.154Z,11.70
2023-04-16T21:47:38.904Z,11.70
2023-04-16T21:50:05.974Z,11.70
2023-04-16T21:52:32.913Z,11.70
2023-04-16T21:55:02.581Z,11.60
2023-04-16T21:57:29.181Z,11.60
2023-04-16T21:59:55.869Z,11.70
2023-04-16T22:02:22.693Z,11.70
2023-04-16T22:04:50.327Z,11.70
2023-04-16T22:07:17.427Z,11.70
2023-04-16T22:09:44.117Z,11.70
2023-04-16T22:12:10.723Z,11.70
2023-04-16T22:14:42.146Z,11.70
2023-04-16T22:17:13.070Z,11.60
2023-04-16T22:19:39.823Z,11.60
2023-04-16T22:22:06.493Z,11.60
2023-04-16T22:24:33.132Z,11.60
2023-04-16T22:26:59.787Z,11.60
2023-04-16T22:29:26.440Z,11.60
2023-04-16T22:31:53.227Z,11.60
2023-04-16T22:34:19.855Z,11.60
2023-04-16T22:36:47.544Z,11.60
2023-04-16T22:39:14.649Z,11.60
2023-04-16T22:41:41.656Z,11.60
2023-04-16T22:44:08.359Z,11.60
2023-04-16T22:46:35.178Z,11.60
2023-04-16T22:49:02.569Z,11.60
2023-04-16T22:51:30.125Z,11.60
2023-04-16T22:53:56.733Z,11.60
2023-04-16T22:56:28.446Z,11.60
2023-04-16T22:58:55.368Z,11.60
2023-04-16T23:01:22.118Z,11.50
2023-04-16T23:03:48.929Z,11.60
2023-04-16T23:06:15.673Z,11.60
2023-04-16T23:08:42.324Z,11.50
2023-04-16T23:11:09.033Z,11.50
2023-04-16T23:13:35.717Z,11.60
2023-04-16T23:16:02.441Z,11.50
2023-04-16T23:18:29.241Z,11.50
2023-04-16T23:20:56.058Z,11.50
2023-04-16T23:23:22.680Z,11.50
2023-04-16T23:25:53.317Z,11.50
2023-04-16T23:28:20.408Z,11.50
2023-04-16T23:30:47.119Z,11.50
2023-04-16T23:33:13.704Z,11.50
2023-04-16T23:35:40.268Z,11.50
2023-04-16T23:38:06.905Z,11.60
2023-04-16T23:40:33.508Z,11.60
2023-04-16T23:43:00.195Z,11.50
2023-04-16T23:45:26.834Z,11.60
2023-04-16T23:47:53.564Z,11.60
2023-04-16T23:50:20.318Z,11.60
2023-04-16T23:52:46.946Z,11.60
2023-04-16T23:55:13.600Z,11.50
2023-04-16T23:57:40.216Z,11.50
